Aérodrome :







RETROUVEZ-NOUS SUR...

 
LOGIN :

S'inscrire | Disclaimer

   EN    FR    IT 

 









Légende :    VFR   VFR Marginal   IFR   IFR Intensif   IFR Très Intensif
Visi : 
Plafond : 
>= 8 km
>= 3000ft
5 à 8 km
1000 à 3000 ft
1500m à 5 km
500 à 1000 ft
800 à 1500m
200 à 500 ft
< 800m
< 200 ft
Symboles :   Orages  Brouillard  Fortes neiges  Fortes précipitations  Vent > 20 kt






- Altitude de l'aérodrome : 118 ft
- Code IATA : YUL


CYUL - Montréal - Pierre-Elliott-Trudeau Int.

DERNIER METAR :
  • 071700Z 10007KT 090V170 30SM FEW220 BKN250 30/16 A2996 RMK CC1CI5 CC TR SLP147 DENSITY ALT 1900FT

METARs EXPIRÉS :
  • 071600Z 15008KT 120V210 30SM BKN250 30/15 A2999 RMK CI7 SLP156 DENSITY ALT 1800FT
  • 071500Z 16007KT 100V210 30SM BKN250 28/15 A3000 RMK CI6 SLP158 DENSITY ALT 1600FT

TAF TAF CYUL
Valide du 07 à 15h jusqu'au 08 à 12h UTC


071441Z 0715/0812 15006KT P6SM FEW090 BKN240
FM071800 18008KT P6SM FEW050
FM072000 20008KT P6SM SCT070
TEMPO 0720/0723 P6SM VCTS SCT070CB
BECMG 0721/0722 21012KT
FM080500 22005KT P6SM BKN070
FM080800 23007KT P6SM -SHRA OVC060
PROB30 0808/0812 VRB15G30KT 2SM TSRA BR BKN030 OVC060CB RMK NXT FCST BY 071800Z
ATIS : ENG : +1 514-633-3037 FRA : +1 514-633-3034
FIR CZUL / Amérique du Nord



MET'MAP, la Météo Aéronautique d'un coup d'oeil ! - Copyright ORBIFLY Décembre 2007 - Disclaimer

ORBIFLY MET'MAP TEAM :

Programmation & Développement : Alexandra Zaïnal
Sur une idée originale de : Baudouin d'Aumeries
Assistance à la programmation : Marc-Olivier Méhu
Soutien technique & logistique : Manuel Goepfert

Contact : metmap@orbifly.com




SOURCES & CREDITS :

   NOAA